Time;durP1;ratioP1;P1;durP2;ratioP2;P2;SDS_P1;SDS_P2;PMS_P1;PMS_P2;Temp;Humidity;BMP_temperature;BMP_pressure;BME280_temperature;BME280_humidity;BME280_pressure;Samples;Min_cycle;Max_cycle;Signal;HPM_P1;HPM_P2
2021/06/12 00:00:43;;;;;;;8.37;6.50;;;15.10;99.90;;;;;;4947023;29;20185;-83
2021/06/12 00:03:08;;;;;;;7.37;6.00;;;15.00;99.90;;;;;;4946792;29;20185;-83
2021/06/12 00:05:34;;;;;;;8.33;6.37;;;15.00;99.90;;;;;;4964684;29;20184;-83
2021/06/12 00:08:00;;;;;;;5.97;5.20;;;15.00;99.90;;;;;;4964522;29;20264;-83
2021/06/12 00:10:30;;;;;;;6.67;6.07;;;15.00;99.90;;;;;;4946813;29;20180;-83
2021/06/12 00:12:57;;;;;;;7.30;5.87;;;14.90;99.90;;;;;;4946670;29;20737;-83
2021/06/12 00:15:23;;;;;;;9.17;6.23;;;14.90;99.90;;;;;;4964071;29;20176;-83
2021/06/12 00:17:49;;;;;;;6.30;5.53;;;14.90;99.90;;;;;;4946624;29;20181;-83
2021/06/12 00:20:27;;;;;;;6.60;5.90;;;14.90;99.90;;;;;;4964222;29;20181;-83
2021/06/12 00:22:54;;;;;;;8.40;5.53;;;14.80;99.90;;;;;;4946603;29;20212;-83
2021/06/12 00:25:25;;;;;;;5.80;5.20;;;14.80;99.90;;;;;;4963614;29;20231;-83
2021/06/12 00:27:54;;;;;;;6.67;5.50;;;14.80;99.90;;;;;;4964312;29;20165;-83
2021/06/12 00:30:19;;;;;;;6.20;5.60;;;14.80;99.90;;;;;;4963796;29;20643;-84
2021/06/12 00:32:45;;;;;;;6.20;5.57;;;14.80;99.90;;;;;;4946763;29;20201;-85
2021/06/12 00:35:12;;;;;;;6.40;5.77;;;14.70;99.90;;;;;;4963275;29;20173;-84
2021/06/12 00:37:39;;;;;;;10.33;5.53;;;14.70;99.90;;;;;;4945743;29;20674;-84
2021/06/12 00:40:07;;;;;;;7.20;5.50;;;14.70;99.90;;;;;;4963000;29;20177;-84
2021/06/12 00:42:34;;;;;;;6.53;5.93;;;14.70;99.90;;;;;;4963645;29;20200;-84
2021/06/12 00:45:00;;;;;;;6.77;5.93;;;14.70;99.90;;;;;;4947480;29;20236;-84
2021/06/12 00:47:25;;;;;;;6.83;6.13;;;14.60;99.90;;;;;;4965048;29;20209;-84
2021/06/12 00:49:51;;;;;;;7.13;6.20;;;14.60;99.90;;;;;;4965267;29;20180;-84
2021/06/12 00:52:16;;;;;;;7.07;6.37;;;14.60;99.90;;;;;;4948184;29;20181;-84
2021/06/12 00:54:42;;;;;;;7.43;6.10;;;14.60;99.90;;;;;;4947606;29;20177;-84
2021/06/12 00:57:09;;;;;;;9.63;6.17;;;14.50;99.90;;;;;;4947084;29;20252;-84
2021/06/12 00:59:35;;;;;;;7.53;6.33;;;14.50;99.90;;;;;;4947808;29;20173;-84
2021/06/12 01:02:00;;;;;;;9.03;6.13;;;14.50;99.90;;;;;;4946796;29;20267;-84
2021/06/12 01:04:27;;;;;;;8.67;6.17;;;14.50;99.90;;;;;;4947171;29;20184;-84
2021/06/12 01:06:53;;;;;;;7.43;6.00;;;14.60;99.90;;;;;;4965043;29;20193;-84
2021/06/12 01:09:21;;;;;;;7.00;5.57;;;14.50;99.90;;;;;;4965285;29;20180;-84
2021/06/12 01:12:15;;;;;;;6.43;5.80;;;14.50;99.90;;;;;;4947810;29;20192;-82
2021/06/12 01:14:44;;;;;;;6.93;5.37;;;14.50;99.90;;;;;;4971373;29;20208;-83
2021/06/12 01:17:21;;;;;;;5.93;5.33;;;14.40;99.90;;;;;;4953326;29;20241;-83
2021/06/12 01:20:11;;;;;;;6.80;6.13;;;14.50;99.90;;;;;;4964645;29;20157;-83
2021/06/12 01:22:46;;;;;;;6.03;5.40;;;14.40;99.90;;;;;;4962213;29;20204;-84
2021/06/12 01:25:26;;;;;;;5.70;5.00;;;14.40;99.90;;;;;;4961809;29;20731;-83
2021/06/12 01:28:10;;;;;;;8.10;5.47;;;14.40;99.90;;;;;;4944729;29;20727;-83
2021/06/12 01:30:40;;;;;;;6.50;5.80;;;14.40;99.90;;;;;;4961669;29;20165;-83
2021/06/12 01:33:09;;;;;;;5.73;5.20;;;14.40;99.90;;;;;;4962363;29;20177;-83
2021/06/12 01:35:53;;;;;;;6.93;6.23;;;14.40;99.90;;;;;;4944665;29;20275;-83
2021/06/12 01:38:25;;;;;;;6.00;5.40;;;14.30;99.90;;;;;;4944512;29;20185;-83
2021/06/12 01:40:52;;;;;;;7.83;5.73;;;14.30;99.90;;;;;;4961208;29;20169;-83
2021/06/12 01:43:19;;;;;;;7.03;5.70;;;14.30;99.90;;;;;;4944497;29;20243;-83
2021/06/12 01:45:47;;;;;;;6.77;6.10;;;14.20;99.90;;;;;;4961801;29;20196;-83
2021/06/12 01:48:15;;;;;;;7.37;5.67;;;14.30;99.90;;;;;;4943948;29;20177;-83
2021/06/12 01:50:41;;;;;;;6.00;5.40;;;14.20;99.90;;;;;;4943911;29;20177;-83
2021/06/12 01:53:09;;;;;;;8.67;5.97;;;14.20;99.90;;;;;;4958766;29;20208;-83
2021/06/12 01:55:37;;;;;;;7.80;5.37;;;14.20;99.90;;;;;;4943282;29;20268;-83
2021/06/12 01:58:07;;;;;;;6.80;5.87;;;14.10;99.90;;;;;;4961374;29;20173;-83
2021/06/12 02:00:33;;;;;;;6.37;5.30;;;14.10;99.90;;;;;;4961529;29;20188;-83
2021/06/12 02:03:01;;;;;;;6.43;5.27;;;14.10;99.90;;;;;;4943576;29;20208;-83
2021/06/12 02:05:27;;;;;;;6.97;5.50;;;14.10;99.90;;;;;;4943888;29;20173;-83
2021/06/12 02:07:55;;;;;;;8.33;5.90;;;14.10;99.90;;;;;;4960863;29;20177;-83
2021/06/12 02:10:23;;;;;;;6.00;5.40;;;14.10;99.90;;;;;;4960863;29;20184;-83
2021/06/12 02:12:54;;;;;;;6.60;5.77;;;14.10;99.90;;;;;;4943011;29;20193;-83
2021/06/12 02:15:22;;;;;;;6.67;5.33;;;14.00;99.90;;;;;;4960837;28;20271;-83
2021/06/12 02:17:49;;;;;;;6.37;5.77;;;14.00;99.90;;;;;;4961235;29;20224;-83
2021/06/12 02:20:15;;;;;;;6.00;5.30;;;14.00;99.90;;;;;;4943354;29;20185;-83
2021/06/12 02:22:43;;;;;;;5.93;5.20;;;14.00;99.90;;;;;;4960952;29;20632;-83
2021/06/12 02:25:11;;;;;;;8.33;5.43;;;13.90;99.90;;;;;;4961221;29;20183;-83
2021/06/12 02:27:39;;;;;;;5.77;5.13;;;13.90;99.90;;;;;;4943768;29;20193;-83
2021/06/12 02:30:06;;;;;;;6.10;5.50;;;13.90;99.90;;;;;;4960529;29;20176;-83
2021/06/12 02:32:37;;;;;;;7.70;5.60;;;13.90;99.90;;;;;;4943404;29;20177;-83
2021/06/12 02:35:06;;;;;;;5.93;5.33;;;13.90;99.90;;;;;;4943648;29;20189;-83
2021/06/12 02:37:31;;;;;;;7.37;5.23;;;13.90;99.90;;;;;;4960716;29;20220;-83
2021/06/12 02:39:57;;;;;;;6.67;5.30;;;13.80;99.90;;;;;;4942714;29;20181;-83
2021/06/12 02:42:23;;;;;;;6.73;5.70;;;13.70;99.90;;;;;;4943218;29;20254;-83
2021/06/12 02:44:48;;;;;;;7.43;5.73;;;13.70;99.90;;;;;;4943321;29;20173;-83
2021/06/12 02:47:15;;;;;;;5.90;5.20;;;13.70;99.90;;;;;;4943144;29;20255;-83
2021/06/12 02:49:42;;;;;;;5.77;5.17;;;13.70;99.90;;;;;;4960194;29;20608;-83
2021/06/12 02:52:17;;;;;;;6.20;5.60;;;13.70;99.90;;;;;;4942601;29;20227;-83
2021/06/12 02:54:45;;;;;;;7.23;5.97;;;13.70;99.90;;;;;;4943244;29;20176;-83
2021/06/12 02:57:11;;;;;;;7.43;5.90;;;13.70;99.90;;;;;;4960816;29;20674;-83
2021/06/12 02:59:41;;;;;;;6.70;5.93;;;13.60;99.90;;;;;;4943503;29;20260;-83
2021/06/12 03:02:08;;;;;;;9.47;5.97;;;13.70;99.90;;;;;;4943421;29;20216;-83
2021/06/12 03:04:35;;;;;;;6.30;5.47;;;13.60;99.90;;;;;;4943677;29;20181;-84
2021/06/12 03:07:04;;;;;;;10.47;5.30;;;13.70;99.90;;;;;;4942903;29;20635;-83
2021/06/12 03:09:30;;;;;;;6.37;5.77;;;13.70;99.90;;;;;;4959685;29;20169;-83
2021/06/12 03:11:56;;;;;;;6.30;5.70;;;13.70;99.90;;;;;;4943112;29;20219;-83
2021/06/12 03:14:24;;;;;;;6.47;5.87;;;13.70;99.90;;;;;;4960407;29;20251;-83
2021/06/12 03:16:51;;;;;;;6.60;5.80;;;13.70;99.90;;;;;;4961233;29;20220;-83
2021/06/12 03:19:17;;;;;;;5.63;5.13;;;13.70;99.90;;;;;;4942893;29;20647;-83
2021/06/12 03:21:44;;;;;;;6.07;5.43;;;13.70;99.90;;;;;;4942815;29;20749;-83
2021/06/12 03:24:10;;;;;;;6.17;4.83;;;13.70;99.90;;;;;;4960623;29;20224;-83
2021/06/12 03:26:37;;;;;;;7.30;5.53;;;13.60;99.90;;;;;;4961772;28;20243;-83
2021/06/12 03:29:04;;;;;;;9.23;5.30;;;13.60;99.90;;;;;;4963896;29;20188;-83
2021/06/12 03:31:30;;;;;;;6.63;5.40;;;13.70;99.90;;;;;;4946975;29;20177;-84
2021/06/12 03:33:57;;;;;;;6.73;5.73;;;13.60;99.90;;;;;;4964533;29;20185;-84
2021/06/12 03:36:25;;;;;;;5.43;4.93;;;13.70;99.90;;;;;;4964005;29;20632;-84
2021/06/12 03:38:51;;;;;;;5.73;5.20;;;13.70;99.90;;;;;;4947132;29;20268;-83
2021/06/12 03:41:17;;;;;;;8.13;5.70;;;13.70;99.90;;;;;;4964620;29;20200;-84
2021/06/12 03:43:44;;;;;;;6.07;5.40;;;13.70;99.90;;;;;;4965476;29;20173;-84
2021/06/12 03:46:13;;;;;;;5.50;4.97;;;13.70;99.90;;;;;;4964535;29;20220;-83
2021/06/12 03:48:40;;;;;;;5.77;5.10;;;13.70;99.90;;;;;;4946824;29;20201;-83
2021/06/12 03:51:08;;;;;;;8.63;5.33;;;13.80;99.90;;;;;;4963391;29;20673;-83
2021/06/12 03:53:44;;;;;;;6.57;5.53;;;13.80;99.90;;;;;;4964029;29;20532;-84
2021/06/12 03:56:21;;;;;;;5.43;4.93;;;13.80;99.90;;;;;;4946676;29;20265;-84
2021/06/12 03:58:48;;;;;;;6.00;5.30;;;13.80;99.90;;;;;;4964051;29;20169;-84
2021/06/12 04:01:16;;;;;;;5.87;4.53;;;13.80;99.90;;;;;;4963714;29;20201;-84
2021/06/12 04:03:43;;;;;;;6.33;5.40;;;13.90;99.90;;;;;;4946849;29;20194;-84
2021/06/12 04:06:10;;;;;;;7.73;5.37;;;13.90;99.90;;;;;;4947201;29;20295;-84
2021/06/12 04:08:36;;;;;;;6.17;5.50;;;13.90;99.90;;;;;;4963908;29;20181;-84
2021/06/12 04:11:02;;;;;;;5.90;5.30;;;13.90;99.90;;;;;;4947052;29;20177;-85
2021/06/12 04:13:28;;;;;;;6.13;5.50;;;13.90;99.90;;;;;;4946882;29;20221;-84
2021/06/12 04:15:54;;;;;;;5.60;5.10;;;14.00;99.90;;;;;;4963963;29;20196;-84
2021/06/12 04:18:20;;;;;;;5.73;5.13;;;14.00;99.90;;;;;;4963864;29;20181;-84
2021/06/12 04:20:46;;;;;;;6.17;5.47;;;14.00;99.90;;;;;;4964149;29;20185;-84
2021/06/12 04:23:12;;;;;;;7.10;5.60;;;14.10;99.90;;;;;;4947763;29;20294;-84
2021/06/12 04:25:37;;;;;;;5.77;4.73;;;14.10;99.90;;;;;;4965728;29;20204;-84
2021/06/12 04:28:06;;;;;;;7.47;5.17;;;14.10;99.90;;;;;;4965432;29;20177;-84
2021/06/12 04:30:32;;;;;;;5.40;4.90;;;14.10;99.90;;;;;;4947861;29;20188;-85
2021/06/12 04:32:58;;;;;;;9.70;4.97;;;14.20;99.90;;;;;;4965223;29;20181;-84
2021/06/12 04:35:24;;;;;;;7.43;4.80;;;14.20;99.90;;;;;;4965140;29;20184;-84
2021/06/12 04:37:50;;;;;;;9.60;4.80;;;14.20;99.90;;;;;;4966393;28;20215;-84
2021/06/12 04:40:16;;;;;;;7.13;5.07;;;14.20;99.90;;;;;;4952223;29;20203;-84
2021/06/12 04:42:42;;;;;;;5.57;4.77;;;14.30;99.90;;;;;;4963312;29;20201;-84
2021/06/12 04:45:09;;;;;;;5.33;4.83;;;14.30;99.90;;;;;;4964193;29;20187;-84
2021/06/12 04:47:36;;;;;;;5.53;4.80;;;14.30;99.90;;;;;;4946909;29;20288;-84
2021/06/12 04:50:04;;;;;;;8.80;5.00;;;14.40;99.90;;;;;;4946184;29;20596;-84
2021/06/12 04:52:30;;;;;;;6.90;4.90;;;14.40;99.90;;;;;;4948562;29;20694;-84
2021/06/12 04:54:55;;;;;;;6.07;4.90;;;14.50;99.90;;;;;;4964280;29;20216;-84
2021/06/12 04:57:21;;;;;;;5.40;4.80;;;14.60;99.90;;;;;;4947188;29;20315;-84
2021/06/12 04:59:47;;;;;;;5.83;4.80;;;14.60;99.90;;;;;;4947345;29;20197;-83
2021/06/12 05:02:14;;;;;;;4.97;4.43;;;14.70;99.90;;;;;;4947405;29;20299;-83
2021/06/12 05:04:40;;;;;;;5.97;5.07;;;14.80;99.90;;;;;;4964498;29;20184;-84
2021/06/12 05:07:05;;;;;;;6.60;4.93;;;14.80;99.90;;;;;;4946697;29;20208;-83
2021/06/12 05:09:31;;;;;;;5.00;4.50;;;14.90;99.90;;;;;;4964755;29;20180;-83
2021/06/12 05:11:58;;;;;;;5.23;4.73;;;15.00;99.90;;;;;;4946000;29;20219;-83
2021/06/12 05:14:25;;;;;;;7.00;5.37;;;15.10;99.90;;;;;;4945684;29;20201;-84
2021/06/12 05:16:50;;;;;;;5.03;4.30;;;15.10;99.90;;;;;;4962506;29;20204;-84
2021/06/12 05:19:16;;;;;;;7.70;4.97;;;15.20;99.90;;;;;;4945511;29;20196;-84
2021/06/12 05:21:45;;;;;;;5.20;4.70;;;15.30;99.90;;;;;;4963546;29;20204;-83
2021/06/12 05:24:11;;;;;;;6.90;4.60;;;15.30;99.90;;;;;;4945584;29;20184;-83
2021/06/12 05:26:38;;;;;;;5.20;4.43;;;15.40;99.90;;;;;;4945270;29;20205;-83
2021/06/12 05:29:04;;;;;;;5.33;4.60;;;15.50;99.90;;;;;;4962170;29;20205;-83
2021/06/12 05:31:31;;;;;;;5.43;4.20;;;15.50;99.90;;;;;;4962814;29;20607;-83
2021/06/12 05:33:57;;;;;;;4.90;4.40;;;15.60;99.90;;;;;;4963901;29;20185;-85
2021/06/12 05:36:23;;;;;;;4.47;4.07;;;15.60;99.90;;;;;;4945521;29;20228;-86
2021/06/12 05:38:49;;;;;;;4.70;4.27;;;15.70;99.90;;;;;;4945408;29;20576;-85
2021/06/12 05:41:15;;;;;;;7.37;4.47;;;15.70;99.90;;;;;;4945139;29;20196;-84
2021/06/12 05:43:40;;;;;;;5.20;4.70;;;15.80;99.90;;;;;;4960593;29;20188;-85
2021/06/12 05:46:06;;;;;;;4.90;4.23;;;15.80;99.90;;;;;;4963915;29;20228;-85
2021/06/12 05:48:33;;;;;;;5.03;4.40;;;15.80;99.90;;;;;;4946829;28;20181;-85
2021/06/12 05:50:59;;;;;;;4.90;4.40;;;15.90;99.90;;;;;;4946247;29;20181;-85
2021/06/12 05:53:25;;;;;;;5.67;4.63;;;15.90;99.90;;;;;;4945313;29;20181;-83
2021/06/12 05:55:52;;;;;;;6.30;4.60;;;15.90;99.90;;;;;;4962547;29;20588;-85
2021/06/12 05:58:17;;;;;;;5.13;4.63;;;15.90;99.90;;;;;;4945717;29;20181;-84
2021/06/12 06:00:43;;;;;;;6.03;4.63;;;15.90;99.90;;;;;;4945566;29;20173;-84
2021/06/12 06:03:09;;;;;;;5.20;4.40;;;15.90;99.90;;;;;;4962517;29;20192;-83
2021/06/12 06:05:34;;;;;;;5.50;4.50;;;16.00;99.90;;;;;;4945465;29;20181;-82
2021/06/12 06:08:00;;;;;;;5.43;4.70;;;16.10;99.90;;;;;;4962328;29;20579;-82
2021/06/12 06:10:26;;;;;;;4.90;4.40;;;16.20;99.90;;;;;;4961453;29;20181;-82
2021/06/12 06:12:52;;;;;;;6.30;4.80;;;16.20;99.90;;;;;;4961843;29;20233;-82
2021/06/12 06:15:17;;;;;;;5.03;4.63;;;16.40;99.90;;;;;;4944923;29;20187;-82
2021/06/12 06:17:44;;;;;;;4.93;4.43;;;16.40;99.90;;;;;;4963308;29;20684;-83
2021/06/12 06:20:11;;;;;;;6.23;4.43;;;16.50;99.90;;;;;;4946883;29;20544;-83
2021/06/12 06:22:37;;;;;;;5.07;4.57;;;16.60;99.90;;;;;;4947494;29;20255;-82
2021/06/12 06:25:05;;;;;;;5.17;4.37;;;16.70;99.90;;;;;;4962662;29;20181;-82
2021/06/12 06:27:31;;;;;;;4.60;4.20;;;16.80;99.90;;;;;;4962694;29;20192;-81
2021/06/12 06:29:56;;;;;;;4.90;4.40;;;16.90;99.90;;;;;;4945829;29;20178;-82
2021/06/12 06:32:22;;;;;;;5.17;4.67;;;17.00;99.90;;;;;;4945529;29;20279;-82
2021/06/12 06:34:48;;;;;;;5.00;4.43;;;17.20;99.90;;;;;;4944284;29;20260;-83
2021/06/12 06:37:13;;;;;;;6.10;4.53;;;17.40;99.90;;;;;;4961233;29;20201;-81
2021/06/12 06:39:39;;;;;;;10.50;4.60;;;17.50;99.90;;;;;;4945482;29;20212;-82
2021/06/12 06:42:05;;;;;;;5.47;4.30;;;17.80;99.90;;;;;;4943275;29;20211;-81
2021/06/12 06:44:35;;;;;;;4.77;4.27;;;17.90;99.90;;;;;;4942891;29;20188;-81
2021/06/12 06:47:02;;;;;;;6.10;4.37;;;18.10;99.90;;;;;;4944318;29;20663;-84
2021/06/12 06:49:27;;;;;;;5.87;4.17;;;18.30;99.90;;;;;;4943791;29;20178;-81
2021/06/12 06:51:53;;;;;;;5.40;4.50;;;18.40;99.90;;;;;;4943710;29;20315;-83
2021/06/12 06:54:18;;;;;;;8.30;4.87;;;18.60;99.90;;;;;;4942537;29;20271;-82
2021/06/12 06:56:44;;;;;;;5.73;4.27;;;18.70;99.90;;;;;;4942332;29;20636;-83
2021/06/12 06:59:10;;;;;;;4.87;4.27;;;18.90;99.90;;;;;;4959988;29;20229;-81
2021/06/12 07:01:37;;;;;;;5.23;4.40;;;19.00;99.90;;;;;;4959286;29;20672;-82
2021/06/12 07:04:04;;;;;;;5.10;4.60;;;19.10;99.90;;;;;;4960244;29;20197;-81
2021/06/12 07:06:30;;;;;;;6.60;4.47;;;19.20;99.90;;;;;;4941898;29;20200;-82
2021/06/12 07:08:55;;;;;;;5.57;4.77;;;19.30;99.90;;;;;;4960594;29;20262;-83
2021/06/12 07:11:21;;;;;;;5.90;4.77;;;19.40;99.90;;;;;;4960924;29;20183;-82
2021/06/12 07:13:46;;;;;;;7.50;4.37;;;19.50;99.90;;;;;;4943285;29;20216;-81
2021/06/12 07:16:12;;;;;;;5.67;4.57;;;19.60;99.90;;;;;;4960038;29;20224;-82
2021/06/12 07:18:38;;;;;;;6.00;4.53;;;19.80;99.90;;;;;;4942690;29;20194;-81
2021/06/12 07:21:04;;;;;;;7.43;4.73;;;20.00;99.90;;;;;;4942167;29;20191;-82
2021/06/12 07:23:29;;;;;;;6.77;4.60;;;20.20;99.90;;;;;;4942354;29;20238;-82
2021/06/12 07:25:55;;;;;;;6.70;4.73;;;20.40;99.90;;;;;;4960586;29;20298;-83
2021/06/12 07:28:21;;;;;;;4.70;4.30;;;20.50;99.90;;;;;;4944218;29;20192;-83
2021/06/12 07:30:46;;;;;;;5.07;4.23;;;20.60;99.90;;;;;;4943942;29;20190;-83
2021/06/12 07:33:14;;;;;;;5.63;5.13;;;20.80;99.90;;;;;;4945003;29;20217;-83
2021/06/12 07:35:41;;;;;;;5.20;4.70;;;20.90;99.90;;;;;;4962851;29;20194;-83
2021/06/12 07:38:07;;;;;;;4.60;4.20;;;21.20;99.90;;;;;;4961271;29;20240;-84
2021/06/12 07:40:33;;;;;;;4.97;4.47;;;21.30;99.90;;;;;;4945268;29;20190;-81
2021/06/12 07:42:58;;;;;;;4.60;4.20;;;21.40;99.90;;;;;;4947235;29;20204;-82
2021/06/12 07:45:25;;;;;;;6.57;4.60;;;21.50;99.90;;;;;;4957263;29;20542;-82
2021/06/12 07:47:52;;;;;;;5.70;4.40;;;21.70;99.90;;;;;;4939918;29;20184;-81
2021/06/12 07:50:18;;;;;;;5.27;4.70;;;21.80;99.90;;;;;;4957957;29;20191;-84
2021/06/12 07:52:43;;;;;;;5.17;4.60;;;21.90;99.90;;;;;;4940519;29;20192;-82
2021/06/12 07:55:10;;;;;;;5.07;4.63;;;22.20;99.90;;;;;;4956701;29;20180;-81
2021/06/12 07:57:35;;;;;;;6.13;4.87;;;22.30;99.90;;;;;;4940381;29;20199;-82
2021/06/12 08:00:03;;;;;;;5.27;4.77;;;22.40;99.90;;;;;;4940201;29;20268;-82
2021/06/12 08:02:28;;;;;;;5.53;4.00;;;22.40;99.90;;;;;;4957755;29;20251;-82
2021/06/12 08:04:54;;;;;;;5.23;3.80;;;22.50;99.90;;;;;;4939717;29;20176;-82
2021/06/12 08:07:20;;;;;;;6.67;4.00;;;22.60;99.90;;;;;;4939408;29;20292;-82
2021/06/12 08:09:46;;;;;;;4.87;4.47;;;22.80;99.90;;;;;;4939494;29;20184;-83
2021/06/12 08:12:12;;;;;;;6.10;4.73;;;23.00;99.90;;;;;;4957204;28;20178;-80
2021/06/12 08:14:38;;;;;;;4.53;4.13;;;23.00;99.90;;;;;;4960388;29;20192;-84
2021/06/12 08:17:04;;;;;;;5.07;3.87;;;23.20;99.90;;;;;;4961947;29;20265;-83
2021/06/12 08:19:29;;;;;;;4.80;3.93;;;23.20;99.90;;;;;;4961294;29;20184;-83
2021/06/12 08:21:55;;;;;;;4.30;3.90;;;23.30;99.90;;;;;;4943171;29;20209;-83
2021/06/12 08:24:21;;;;;;;4.13;3.83;;;23.50;99.90;;;;;;4942924;29;20181;-81
2021/06/12 08:26:47;;;;;;;6.23;4.57;;;23.50;99.90;;;;;;4959679;29;20200;-81
2021/06/12 08:29:12;;;;;;;6.13;4.47;;;23.60;99.90;;;;;;4942747;29;20184;-81
2021/06/12 08:31:38;;;;;;;5.10;3.90;;;23.70;99.90;;;;;;4960376;29;20170;-82
2021/06/12 08:34:04;;;;;;;4.73;4.00;;;23.70;99.90;;;;;;4960849;29;20662;-83
2021/06/12 08:36:30;;;;;;;6.13;3.60;;;23.70;99.90;;;;;;4943988;29;20210;-83
2021/06/12 08:38:56;;;;;;;3.57;3.27;;;23.90;99.90;;;;;;4943451;29;20218;-82
2021/06/12 08:41:22;;;;;;;4.03;3.60;;;24.20;99.90;;;;;;4943926;29;20342;-82
2021/06/12 08:43:48;;;;;;;6.97;3.50;;;24.40;99.90;;;;;;4963020;29;20255;-82
2021/06/12 08:46:14;;;;;;;4.10;3.70;;;24.70;99.90;;;;;;4944814;29;20698;-83
2021/06/12 08:48:40;;;;;;;3.80;3.50;;;25.00;99.90;;;;;;4944884;29;20174;-81
2021/06/12 08:51:06;;;;;;;4.97;3.27;;;25.10;99.90;;;;;;4946786;29;20273;-83
2021/06/12 08:53:32;;;;;;;4.30;2.80;;;25.10;99.90;;;;;;4964382;29;20231;-83
2021/06/12 08:56:01;;;;;;;4.80;3.00;;;25.20;99.90;;;;;;4943834;29;20200;-83
2021/06/12 08:58:27;;;;;;;4.00;3.30;;;25.40;99.90;;;;;;4946756;29;20182;-84
2021/06/12 09:00:53;;;;;;;3.17;2.87;;;25.50;99.90;;;;;;4962225;29;20177;-83
2021/06/12 09:03:24;;;;;;;3.50;3.07;;;25.40;99.90;;;;;;4962776;29;20668;-83
2021/06/12 09:05:54;;;;;;;3.73;3.00;;;25.20;99.90;;;;;;4962750;29;20272;-82
2021/06/12 09:08:22;;;;;;;2.90;2.60;;;25.00;99.60;;;;;;4945160;29;20184;-83
2021/06/12 09:10:55;;;;;;;6.53;3.10;;;25.10;99.80;;;;;;4946201;29;20176;-83
2021/06/12 09:13:42;;;;;;;8.10;2.87;;;25.30;99.60;;;;;;4947116;29;20201;-82
2021/06/12 09:16:28;;;;;;;3.33;3.03;;;25.30;98.90;;;;;;4962210;29;20197;-83
2021/06/12 09:18:56;;;;;;;4.30;3.10;;;25.30;99.90;;;;;;4945879;29;20606;-83
2021/06/12 09:21:27;;;;;;;3.87;3.10;;;25.40;99.90;;;;;;4962061;29;20669;-83
2021/06/12 09:23:54;;;;;;;5.50;2.90;;;25.40;99.90;;;;;;4961713;28;20163;-81
2021/06/12 09:26:22;;;;;;;6.13;2.50;;;25.50;99.90;;;;;;4962069;29;20206;-82
2021/06/12 09:28:54;;;;;;;6.17;3.00;;;25.70;98.50;;;;;;4962193;29;20185;-83
2021/06/12 09:31:26;;;;;;;3.03;2.83;;;26.00;98.50;;;;;;4945308;29;20187;-83
2021/06/12 09:33:55;;;;;;;2.90;2.70;;;26.60;99.70;;;;;;4962659;29;20193;-81
2021/06/12 09:36:34;;;;;;;3.77;3.03;;;27.00;98.50;;;;;;4944702;29;20246;-83
2021/06/12 09:39:15;;;;;;;2.97;2.73;;;26.70;97.70;;;;;;4962607;29;20170;-80
2021/06/12 09:41:43;;;;;;;5.30;3.37;;;26.60;98.20;;;;;;4945965;29;20252;-83
2021/06/12 09:44:10;;;;;;;3.20;2.90;;;26.60;95.70;;;;;;4962377;29;20183;-82
2021/06/12 09:46:38;;;;;;;2.97;2.57;;;26.70;97.70;;;;;;4962073;29;20196;-83
2021/06/12 09:49:05;;;;;;;4.47;2.80;;;27.10;98.60;;;;;;4944908;29;20183;-83
2021/06/12 09:51:32;;;;;;;3.97;2.63;;;27.20;96.40;;;;;;4944892;29;20205;-82
2021/06/12 09:54:00;;;;;;;2.90;2.70;;;26.90;95.40;;;;;;4961590;29;20178;-82
2021/06/12 09:56:26;;;;;;;3.57;2.40;;;26.90;94.40;;;;;;4961520;29;20243;-81
2021/06/12 09:58:54;;;;;;;3.33;2.40;;;27.10;94.30;;;;;;4944106;29;20645;-82
2021/06/12 10:01:22;;;;;;;2.97;2.50;;;27.10;93.80;;;;;;4962350;29;20643;-80
2021/06/12 10:03:49;;;;;;;2.67;2.47;;;27.40;93.30;;;;;;4962303;29;20225;-81
2021/06/12 10:06:20;;;;;;;2.90;2.70;;;27.50;92.50;;;;;;4962377;29;20671;-81
2021/06/12 10:08:49;;;;;;;3.23;2.93;;;27.70;91.80;;;;;;4945603;29;20183;-81
2021/06/12 10:11:16;;;;;;;3.93;2.80;;;27.20;91.30;;;;;;4945239;29;20186;-80
2021/06/12 10:13:43;;;;;;;4.00;3.30;;;26.60;91.70;;;;;;4945493;29;20236;-81
2021/06/12 10:16:14;;;;;;;5.57;2.77;;;26.70;92.00;;;;;;4945366;29;20251;-80
2021/06/12 10:18:41;;;;;;;3.20;2.97;;;27.00;93.30;;;;;;4947272;29;20193;-81
2021/06/12 10:21:13;;;;;;;4.03;3.17;;;27.40;91.90;;;;;;4945230;29;20604;-81
2021/06/12 10:23:40;;;;;;;5.77;3.20;;;27.70;92.40;;;;;;4945687;29;20272;-81
2021/06/12 10:26:07;;;;;;;3.40;3.10;;;28.00;94.30;;;;;;4962476;29;20222;-80
2021/06/12 10:28:33;;;;;;;3.43;2.90;;;28.00;90.80;;;;;;4945116;29;20218;-80
2021/06/12 10:31:09;;;;;;;3.87;3.17;;;27.70;90.50;;;;;;4961876;29;20668;-81
2021/06/12 10:33:35;;;;;;;6.20;3.03;;;27.70;94.90;;;;;;4961944;29;20197;-81
2021/06/12 10:36:14;;;;;;;3.87;3.03;;;27.90;93.50;;;;;;4960352;28;20194;-81
2021/06/12 10:38:40;;;;;;;3.10;2.80;;;28.40;92.60;;;;;;4944184;29;20193;-81
2021/06/12 10:41:24;;;;;;;5.73;3.00;;;28.70;90.30;;;;;;4960894;29;20186;-81
2021/06/12 10:43:52;;;;;;;3.67;2.90;;;28.40;86.20;;;;;;4943394;29;20201;-80
2021/06/12 10:46:30;;;;;;;3.37;3.00;;;28.00;90.10;;;;;;4961439;29;20197;-80
2021/06/12 10:48:56;;;;;;;3.20;2.73;;;27.90;87.50;;;;;;4944361;29;20182;-80
2021/06/12 10:51:27;;;;;;;3.37;2.77;;;28.10;85.60;;;;;;4961753;29;20234;-81
2021/06/12 10:54:18;;;;;;;3.00;2.80;;;28.00;83.50;;;;;;4963395;29;20264;-81
2021/06/12 10:56:45;;;;;;;3.60;3.30;;;28.10;81.50;;;;;;4945774;29;20204;-80
2021/06/12 10:59:14;;;;;;;2.93;2.73;;;27.90;86.20;;;;;;4963901;29;20238;-80
2021/06/12 11:02:07;;;;;;;3.37;3.07;;;27.80;83.20;;;;;;4963461;29;20200;-80
2021/06/12 11:04:52;;;;;;;3.53;3.23;;;27.40;86.60;;;;;;4963000;29;20149;-81
2021/06/12 11:07:33;;;;;;;3.90;3.43;;;27.50;83.50;;;;;;4962983;29;20194;-81
2021/06/12 11:10:11;;;;;;;5.17;3.30;;;27.70;82.80;;;;;;4946148;29;20251;-80
2021/06/12 11:12:44;;;;;;;4.67;3.00;;;28.10;82.80;;;;;;4946303;29;20280;-81
2021/06/12 11:15:12;;;;;;;3.93;3.50;;;28.50;77.90;;;;;;4963351;29;20173;-80
2021/06/12 11:17:39;;;;;;;3.50;3.20;;;28.90;79.30;;;;;;4963593;29;20228;-83
2021/06/12 11:20:11;;;;;;;4.23;2.97;;;29.30;82.10;;;;;;4963140;29;20246;-80
2021/06/12 11:22:55;;;;;;;4.13;3.43;;;29.40;76.20;;;;;;4945376;29;20258;-81
2021/06/12 11:25:24;;;;;;;3.20;3.00;;;29.40;73.80;;;;;;4961558;29;20246;-81
2021/06/12 11:28:14;;;;;;;3.70;3.33;;;29.90;76.40;;;;;;4960992;29;20252;-81
2021/06/12 11:30:41;;;;;;;3.83;3.47;;;29.90;70.70;;;;;;4961597;29;20180;-81
2021/06/12 11:33:07;;;;;;;4.07;3.70;;;29.00;74.40;;;;;;4943498;29;20190;-79
2021/06/12 11:35:42;;;;;;;3.90;3.60;;;29.40;75.10;;;;;;4943208;29;20179;-81
2021/06/12 11:38:11;;;;;;;6.00;3.67;;;30.10;80.80;;;;;;4961947;29;20648;-79
2021/06/12 11:40:38;;;;;;;5.57;3.37;;;30.30;75.30;;;;;;4942851;29;20177;-81
2021/06/12 11:43:04;;;;;;;3.90;3.60;;;29.70;68.80;;;;;;4943012;29;20298;-78
2021/06/12 11:45:33;;;;;;;3.90;3.60;;;29.20;74.50;;;;;;4961757;29;20195;-80
2021/06/12 11:48:18;;;;;;;6.10;3.40;;;29.20;77.90;;;;;;4948631;29;20653;-80
2021/06/12 11:50:47;;;;;;;5.23;3.70;;;29.50;69.00;;;;;;4948158;29;20175;-79
2021/06/12 11:53:19;;;;;;;4.70;3.33;;;29.70;73.80;;;;;;4965703;29;20183;-79
2021/06/12 11:55:45;;;;;;;4.73;3.60;;;30.10;73.40;;;;;;4947389;29;20183;-79
2021/06/12 11:58:12;;;;;;;5.87;4.17;;;30.30;74.00;;;;;;4963134;29;20190;-77
2021/06/12 12:00:45;;;;;;;5.63;4.00;;;30.20;77.50;;;;;;4963844;29;20182;-79
2021/06/12 12:03:18;;;;;;;4.70;3.50;;;30.10;73.50;;;;;;4945146;29;20197;-80
2021/06/12 12:05:51;;;;;;;3.80;3.50;;;29.20;73.70;;;;;;4948334;29;20232;-81
2021/06/12 12:08:21;;;;;;;3.97;3.67;;;28.60;72.30;;;;;;4966424;29;20184;-81
2021/06/12 12:10:54;;;;;;;4.07;3.77;;;28.00;73.60;;;;;;4965291;29;20181;-82
2021/06/12 12:13:39;;;;;;;4.43;4.03;;;28.60;79.40;;;;;;4965671;29;20200;-83
2021/06/12 12:16:17;;;;;;;4.47;4.07;;;28.30;74.20;;;;;;4948776;29;20667;-82
2021/06/12 12:18:44;;;;;;;5.40;3.67;;;27.50;74.70;;;;;;4948420;29;20184;-81
2021/06/12 12:21:09;;;;;;;3.80;3.50;;;27.00;76.30;;;;;;4965880;29;20175;-83
2021/06/12 12:23:35;;;;;;;3.90;3.60;;;27.30;79.90;;;;;;4948294;29;20173;-82
2021/06/12 12:26:10;;;;;;;4.27;3.87;;;28.60;74.90;;;;;;4948287;29;20308;-82
2021/06/12 12:28:56;;;;;;;4.40;3.50;;;29.40;71.60;;;;;;4948231;29;20169;-82
2021/06/12 12:31:24;;;;;;;5.93;4.03;;;28.90;71.30;;;;;;4965037;29;20207;-81
2021/06/12 12:33:51;;;;;;;3.87;3.57;;;29.40;74.60;;;;;;4948149;29;20177;-82
2021/06/12 12:36:17;;;;;;;3.87;3.57;;;30.50;70.90;;;;;;4949161;29;20568;-82
2021/06/12 12:38:52;;;;;;;3.77;3.30;;;31.00;66.60;;;;;;4965955;29;20180;-82
2021/06/12 12:41:17;;;;;;;3.57;3.27;;;31.10;67.40;;;;;;4948164;29;20257;-82
2021/06/12 12:43:43;;;;;;;3.70;3.27;;;31.40;66.10;;;;;;4966317;29;20194;-82
2021/06/12 12:46:09;;;;;;;6.27;3.67;;;31.50;73.60;;;;;;4965865;29;20195;-80
2021/06/12 12:48:38;;;;;;;3.67;3.37;;;31.60;63.60;;;;;;4947949;29;20175;-81
2021/06/12 12:51:04;;;;;;;3.80;3.47;;;30.70;64.30;;;;;;4943562;29;20191;-77